sensor_id;sensor_type;location;lat;lon;timestamp;P1;durP1;ratioP1;P2;durP2;ratioP2
34317;SDS011;20582;52.196;20.952;2022-08-19T00:00:23;18.88;;;12.40;;
34317;SDS011;20582;52.196;20.952;2022-08-19T00:02:49;19.35;;;12.95;;
34317;SDS011;20582;52.196;20.952;2022-08-19T00:05:15;21.10;;;13.40;;
34317;SDS011;20582;52.196;20.952;2022-08-19T00:07:42;19.30;;;12.63;;
34317;SDS011;20582;52.196;20.952;2022-08-19T00:10:09;21.25;;;12.23;;
34317;SDS011;20582;52.196;20.952;2022-08-19T00:12:35;21.65;;;12.70;;
34317;SDS011;20582;52.196;20.952;2022-08-19T00:15:03;17.15;;;12.73;;
34317;SDS011;20582;52.196;20.952;2022-08-19T00:17:29;20.08;;;13.85;;
34317;SDS011;20582;52.196;20.952;2022-08-19T00:19:55;20.95;;;12.73;;
34317;SDS011;20582;52.196;20.952;2022-08-19T00:22:21;18.55;;;13.35;;
34317;SDS011;20582;52.196;20.952;2022-08-19T00:24:47;20.92;;;14.07;;
34317;SDS011;20582;52.196;20.952;2022-08-19T00:27:13;21.23;;;13.80;;
34317;SDS011;20582;52.196;20.952;2022-08-19T00:29:39;19.20;;;13.73;;
34317;SDS011;20582;52.196;20.952;2022-08-19T00:32:06;20.17;;;13.30;;
34317;SDS011;20582;52.196;20.952;2022-08-19T00:34:32;17.52;;;13.68;;
34317;SDS011;20582;52.196;20.952;2022-08-19T00:36:58;23.05;;;14.48;;
34317;SDS011;20582;52.196;20.952;2022-08-19T00:39:24;22.38;;;14.02;;
34317;SDS011;20582;52.196;20.952;2022-08-19T00:41:51;18.77;;;14.05;;
34317;SDS011;20582;52.196;20.952;2022-08-19T00:44:19;19.50;;;14.15;;
34317;SDS011;20582;52.196;20.952;2022-08-19T00:46:46;18.02;;;13.88;;
34317;SDS011;20582;52.196;20.952;2022-08-19T00:51:42;19.33;;;14.25;;
34317;SDS011;20582;52.196;20.952;2022-08-19T00:54:09;19.40;;;13.45;;
34317;SDS011;20582;52.196;20.952;2022-08-19T00:56:35;18.77;;;13.70;;
34317;SDS011;20582;52.196;20.952;2022-08-19T00:59:02;20.50;;;13.85;;
34317;SDS011;20582;52.196;20.952;2022-08-19T01:01:33;22.50;;;13.20;;
34317;SDS011;20582;52.196;20.952;2022-08-19T01:03:59;18.52;;;12.85;;
34317;SDS011;20582;52.196;20.952;2022-08-19T01:06:25;18.15;;;13.02;;
34317;SDS011;20582;52.196;20.952;2022-08-19T01:08:52;20.33;;;13.35;;
34317;SDS011;20582;52.196;20.952;2022-08-19T01:11:19;19.08;;;13.93;;
34317;SDS011;20582;52.196;20.952;2022-08-19T01:13:45;19.52;;;13.20;;
34317;SDS011;20582;52.196;20.952;2022-08-19T01:16:11;19.80;;;13.40;;
34317;SDS011;20582;52.196;20.952;2022-08-19T01:18:38;23.58;;;13.48;;
34317;SDS011;20582;52.196;20.952;2022-08-19T01:21:09;20.80;;;13.60;;
34317;SDS011;20582;52.196;20.952;2022-08-19T01:23:36;17.58;;;12.95;;
34317;SDS011;20582;52.196;20.952;2022-08-19T01:26:19;25.52;;;13.60;;
34317;SDS011;20582;52.196;20.952;2022-08-19T01:28:46;22.05;;;13.48;;
34317;SDS011;20582;52.196;20.952;2022-08-19T01:31:14;22.25;;;14.07;;
34317;SDS011;20582;52.196;20.952;2022-08-19T01:33:40;19.40;;;13.43;;
34317;SDS011;20582;52.196;20.952;2022-08-19T01:36:10;21.67;;;14.45;;
34317;SDS011;20582;52.196;20.952;2022-08-19T01:38:38;18.60;;;13.80;;
34317;SDS011;20582;52.196;20.952;2022-08-19T01:41:04;19.00;;;14.00;;
34317;SDS011;20582;52.196;20.952;2022-08-19T01:43:31;16.30;;;13.23;;
34317;SDS011;20582;52.196;20.952;2022-08-19T01:45:57;20.63;;;14.23;;
34317;SDS011;20582;52.196;20.952;2022-08-19T01:48:23;21.73;;;13.63;;
34317;SDS011;20582;52.196;20.952;2022-08-19T01:50:49;19.98;;;14.57;;
34317;SDS011;20582;52.196;20.952;2022-08-19T01:53:15;18.05;;;13.90;;
34317;SDS011;20582;52.196;20.952;2022-08-19T01:55:42;20.02;;;13.98;;
34317;SDS011;20582;52.196;20.952;2022-08-19T01:58:10;20.88;;;14.50;;
34317;SDS011;20582;52.196;20.952;2022-08-19T02:00:37;19.73;;;14.23;;
34317;SDS011;20582;52.196;20.952;2022-08-19T02:03:03;19.70;;;14.00;;
34317;SDS011;20582;52.196;20.952;2022-08-19T02:05:29;20.58;;;13.77;;
34317;SDS011;20582;52.196;20.952;2022-08-19T02:07:56;19.77;;;13.82;;
34317;SDS011;20582;52.196;20.952;2022-08-19T02:10:22;19.90;;;13.68;;
34317;SDS011;20582;52.196;20.952;2022-08-19T02:12:49;18.83;;;13.68;;
34317;SDS011;20582;52.196;20.952;2022-08-19T02:15:16;21.40;;;14.07;;
34317;SDS011;20582;52.196;20.952;2022-08-19T02:17:43;22.10;;;15.30;;
34317;SDS011;20582;52.196;20.952;2022-08-19T02:20:09;22.80;;;15.52;;
34317;SDS011;20582;52.196;20.952;2022-08-19T02:22:37;22.75;;;15.57;;
34317;SDS011;20582;52.196;20.952;2022-08-19T02:25:05;21.90;;;15.60;;
34317;SDS011;20582;52.196;20.952;2022-08-19T02:27:31;26.50;;;15.68;;
34317;SDS011;20582;52.196;20.952;2022-08-19T02:29:58;20.50;;;15.98;;
34317;SDS011;20582;52.196;20.952;2022-08-19T02:32:24;21.45;;;16.00;;
34317;SDS011;20582;52.196;20.952;2022-08-19T02:34:51;24.50;;;16.55;;
34317;SDS011;20582;52.196;20.952;2022-08-19T02:37:17;21.48;;;16.27;;
34317;SDS011;20582;52.196;20.952;2022-08-19T02:40:01;23.13;;;16.42;;
34317;SDS011;20582;52.196;20.952;2022-08-19T02:42:28;23.65;;;16.95;;
34317;SDS011;20582;52.196;20.952;2022-08-19T02:44:55;25.77;;;15.68;;
34317;SDS011;20582;52.196;20.952;2022-08-19T02:47:21;23.02;;;16.15;;
34317;SDS011;20582;52.196;20.952;2022-08-19T02:49:47;22.27;;;16.50;;
34317;SDS011;20582;52.196;20.952;2022-08-19T02:52:15;28.35;;;16.40;;
34317;SDS011;20582;52.196;20.952;2022-08-19T02:54:41;25.15;;;16.65;;
34317;SDS011;20582;52.196;20.952;2022-08-19T02:57:07;22.30;;;16.65;;
34317;SDS011;20582;52.196;20.952;2022-08-19T02:59:33;26.20;;;16.90;;
34317;SDS011;20582;52.196;20.952;2022-08-19T03:01:59;24.27;;;16.30;;
34317;SDS011;20582;52.196;20.952;2022-08-19T03:04:25;23.27;;;16.80;;
34317;SDS011;20582;52.196;20.952;2022-08-19T03:06:51;21.48;;;16.08;;
34317;SDS011;20582;52.196;20.952;2022-08-19T03:09:18;23.73;;;16.42;;
34317;SDS011;20582;52.196;20.952;2022-08-19T03:11:45;22.23;;;16.23;;
34317;SDS011;20582;52.196;20.952;2022-08-19T03:14:11;22.58;;;16.50;;
34317;SDS011;20582;52.196;20.952;2022-08-19T03:16:48;22.00;;;16.73;;
34317;SDS011;20582;52.196;20.952;2022-08-19T03:19:15;18.75;;;15.85;;
34317;SDS011;20582;52.196;20.952;2022-08-19T03:21:42;22.58;;;16.13;;
34317;SDS011;20582;52.196;20.952;2022-08-19T03:24:09;24.75;;;16.25;;
34317;SDS011;20582;52.196;20.952;2022-08-19T03:26:38;23.50;;;16.88;;
34317;SDS011;20582;52.196;20.952;2022-08-19T03:29:05;23.05;;;16.27;;
34317;SDS011;20582;52.196;20.952;2022-08-19T03:31:31;22.92;;;16.88;;
34317;SDS011;20582;52.196;20.952;2022-08-19T03:33:58;21.52;;;16.00;;
34317;SDS011;20582;52.196;20.952;2022-08-19T03:36:25;22.83;;;15.23;;
34317;SDS011;20582;52.196;20.952;2022-08-19T03:38:53;21.35;;;16.08;;
34317;SDS011;20582;52.196;20.952;2022-08-19T03:41:23;21.60;;;15.70;;
34317;SDS011;20582;52.196;20.952;2022-08-19T03:43:50;24.38;;;16.35;;
34317;SDS011;20582;52.196;20.952;2022-08-19T03:46:18;20.55;;;15.52;;
34317;SDS011;20582;52.196;20.952;2022-08-19T03:48:48;22.05;;;15.77;;
34317;SDS011;20582;52.196;20.952;2022-08-19T03:51:19;23.17;;;15.70;;
34317;SDS011;20582;52.196;20.952;2022-08-19T03:53:45;22.23;;;15.82;;
34317;SDS011;20582;52.196;20.952;2022-08-19T03:56:12;22.20;;;16.52;;
34317;SDS011;20582;52.196;20.952;2022-08-19T03:58:38;29.15;;;17.40;;
34317;SDS011;20582;52.196;20.952;2022-08-19T04:01:11;26.08;;;16.58;;
34317;SDS011;20582;52.196;20.952;2022-08-19T04:03:38;24.08;;;15.80;;
34317;SDS011;20582;52.196;20.952;2022-08-19T04:06:14;23.95;;;16.30;;
34317;SDS011;20582;52.196;20.952;2022-08-19T04:08:41;23.35;;;16.35;;
34317;SDS011;20582;52.196;20.952;2022-08-19T04:11:12;24.42;;;17.00;;
34317;SDS011;20582;52.196;20.952;2022-08-19T04:13:38;26.65;;;16.50;;
34317;SDS011;20582;52.196;20.952;2022-08-19T04:16:04;23.70;;;16.20;;
34317;SDS011;20582;52.196;20.952;2022-08-19T04:18:31;19.38;;;15.45;;
34317;SDS011;20582;52.196;20.952;2022-08-19T04:20:58;29.13;;;16.65;;
34317;SDS011;20582;52.196;20.952;2022-08-19T04:23:25;23.08;;;15.43;;
34317;SDS011;20582;52.196;20.952;2022-08-19T04:25:53;22.98;;;15.90;;
34317;SDS011;20582;52.196;20.952;2022-08-19T04:28:19;22.60;;;15.93;;
34317;SDS011;20582;52.196;20.952;2022-08-19T04:30:46;24.85;;;16.75;;
34317;SDS011;20582;52.196;20.952;2022-08-19T04:33:13;25.77;;;16.15;;
34317;SDS011;20582;52.196;20.952;2022-08-19T04:35:41;23.77;;;16.58;;
34317;SDS011;20582;52.196;20.952;2022-08-19T04:38:08;20.60;;;15.38;;
34317;SDS011;20582;52.196;20.952;2022-08-19T04:40:38;24.40;;;15.70;;
34317;SDS011;20582;52.196;20.952;2022-08-19T04:43:23;20.75;;;16.08;;
34317;SDS011;20582;52.196;20.952;2022-08-19T04:45:49;20.02;;;15.32;;
34317;SDS011;20582;52.196;20.952;2022-08-19T04:48:16;20.85;;;15.43;;
34317;SDS011;20582;52.196;20.952;2022-08-19T04:50:47;28.75;;;15.82;;
34317;SDS011;20582;52.196;20.952;2022-08-19T04:53:13;23.33;;;16.05;;
34317;SDS011;20582;52.196;20.952;2022-08-19T04:55:41;21.02;;;15.55;;
34317;SDS011;20582;52.196;20.952;2022-08-19T04:58:07;22.73;;;15.15;;
34317;SDS011;20582;52.196;20.952;2022-08-19T05:00:33;27.08;;;15.20;;
34317;SDS011;20582;52.196;20.952;2022-08-19T05:02:59;20.58;;;14.68;;
34317;SDS011;20582;52.196;20.952;2022-08-19T05:05:25;21.38;;;15.20;;
34317;SDS011;20582;52.196;20.952;2022-08-19T05:07:51;21.83;;;14.45;;
34317;SDS011;20582;52.196;20.952;2022-08-19T05:10:17;24.55;;;14.57;;
34317;SDS011;20582;52.196;20.952;2022-08-19T05:12:44;21.52;;;14.13;;
34317;SDS011;20582;52.196;20.952;2022-08-19T05:15:10;22.38;;;14.93;;
34317;SDS011;20582;52.196;20.952;2022-08-19T05:17:36;22.83;;;14.88;;
34317;SDS011;20582;52.196;20.952;2022-08-19T05:20:03;25.23;;;15.40;;
34317;SDS011;20582;52.196;20.952;2022-08-19T05:22:48;31.30;;;14.70;;
34317;SDS011;20582;52.196;20.952;2022-08-19T05:25:16;22.00;;;14.88;;
34317;SDS011;20582;52.196;20.952;2022-08-19T05:27:43;24.40;;;14.65;;
34317;SDS011;20582;52.196;20.952;2022-08-19T05:30:10;23.02;;;14.43;;
34317;SDS011;20582;52.196;20.952;2022-08-19T05:32:37;19.77;;;14.65;;
34317;SDS011;20582;52.196;20.952;2022-08-19T05:35:03;25.05;;;14.20;;
34317;SDS011;20582;52.196;20.952;2022-08-19T05:37:29;24.83;;;14.82;;
34317;SDS011;20582;52.196;20.952;2022-08-19T05:39:55;24.25;;;14.25;;
34317;SDS011;20582;52.196;20.952;2022-08-19T05:42:22;21.45;;;14.38;;
34317;SDS011;20582;52.196;20.952;2022-08-19T05:44:48;17.05;;;13.40;;
34317;SDS011;20582;52.196;20.952;2022-08-19T05:47:14;22.17;;;14.85;;
34317;SDS011;20582;52.196;20.952;2022-08-19T05:49:41;25.83;;;14.82;;
34317;SDS011;20582;52.196;20.952;2022-08-19T05:52:10;23.38;;;13.80;;
34317;SDS011;20582;52.196;20.952;2022-08-19T05:54:37;23.70;;;14.15;;
34317;SDS011;20582;52.196;20.952;2022-08-19T05:57:05;23.80;;;14.07;;
34317;SDS011;20582;52.196;20.952;2022-08-19T05:59:31;20.60;;;14.07;;
34317;SDS011;20582;52.196;20.952;2022-08-19T06:01:59;22.77;;;13.45;;
34317;SDS011;20582;52.196;20.952;2022-08-19T06:04:25;20.52;;;13.55;;
34317;SDS011;20582;52.196;20.952;2022-08-19T06:06:52;20.15;;;14.20;;
34317;SDS011;20582;52.196;20.952;2022-08-19T06:09:18;21.35;;;14.55;;
34317;SDS011;20582;52.196;20.952;2022-08-19T06:11:46;19.00;;;13.70;;
34317;SDS011;20582;52.196;20.952;2022-08-19T06:14:17;20.83;;;13.43;;
34317;SDS011;20582;52.196;20.952;2022-08-19T06:16:43;17.35;;;13.00;;
34317;SDS011;20582;52.196;20.952;2022-08-19T06:19:14;23.33;;;13.25;;
34317;SDS011;20582;52.196;20.952;2022-08-19T06:21:41;22.83;;;12.52;;
34317;SDS011;20582;52.196;20.952;2022-08-19T06:24:09;19.75;;;12.00;;
34317;SDS011;20582;52.196;20.952;2022-08-19T06:26:37;25.95;;;14.35;;
34317;SDS011;20582;52.196;20.952;2022-08-19T06:29:04;25.02;;;12.70;;
34317;SDS011;20582;52.196;20.952;2022-08-19T06:31:31;23.48;;;13.45;;
34317;SDS011;20582;52.196;20.952;2022-08-19T06:33:58;19.17;;;13.05;;
34317;SDS011;20582;52.196;20.952;2022-08-19T06:36:27;27.35;;;12.55;;
34317;SDS011;20582;52.196;20.952;2022-08-19T06:38:55;20.67;;;12.65;;
34317;SDS011;20582;52.196;20.952;2022-08-19T06:41:24;18.50;;;12.52;;
34317;SDS011;20582;52.196;20.952;2022-08-19T06:43:50;24.13;;;12.73;;
34317;SDS011;20582;52.196;20.952;2022-08-19T06:46:17;23.23;;;12.70;;
34317;SDS011;20582;52.196;20.952;2022-08-19T06:48:44;19.63;;;12.98;;
34317;SDS011;20582;52.196;20.952;2022-08-19T06:51:11;21.50;;;12.90;;
34317;SDS011;20582;52.196;20.952;2022-08-19T06:53:40;23.52;;;13.50;;
34317;SDS011;20582;52.196;20.952;2022-08-19T06:56:06;20.83;;;12.60;;
34317;SDS011;20582;52.196;20.952;2022-08-19T06:58:32;20.27;;;13.52;;
34317;SDS011;20582;52.196;20.952;2022-08-19T07:00:59;21.88;;;13.10;;
34317;SDS011;20582;52.196;20.952;2022-08-19T07:03:26;22.23;;;13.07;;
34317;SDS011;20582;52.196;20.952;2022-08-19T07:05:53;19.25;;;13.63;;
34317;SDS011;20582;52.196;20.952;2022-08-19T07:08:19;24.05;;;13.55;;
34317;SDS011;20582;52.196;20.952;2022-08-19T07:10:45;23.67;;;12.77;;
34317;SDS011;20582;52.196;20.952;2022-08-19T07:13:11;25.80;;;13.48;;
34317;SDS011;20582;52.196;20.952;2022-08-19T07:15:37;19.63;;;13.25;;
34317;SDS011;20582;52.196;20.952;2022-08-19T07:18:03;19.58;;;13.35;;
34317;SDS011;20582;52.196;20.952;2022-08-19T07:20:30;26.83;;;13.63;;
34317;SDS011;20582;52.196;20.952;2022-08-19T07:22:56;34.42;;;14.32;;
34317;SDS011;20582;52.196;20.952;2022-08-19T07:25:22;25.23;;;13.75;;
34317;SDS011;20582;52.196;20.952;2022-08-19T07:27:48;19.85;;;13.20;;
34317;SDS011;20582;52.196;20.952;2022-08-19T07:30:16;40.13;;;15.40;;
34317;SDS011;20582;52.196;20.952;2022-08-19T07:32:42;35.35;;;13.85;;
34317;SDS011;20582;52.196;20.952;2022-08-19T07:35:08;23.65;;;13.15;;
34317;SDS011;20582;52.196;20.952;2022-08-19T07:37:35;36.85;;;14.85;;
34317;SDS011;20582;52.196;20.952;2022-08-19T07:40:03;24.65;;;12.23;;
34317;SDS011;20582;52.196;20.952;2022-08-19T07:42:29;21.67;;;11.75;;
34317;SDS011;20582;52.196;20.952;2022-08-19T07:44:55;36.40;;;13.13;;
34317;SDS011;20582;52.196;20.952;2022-08-19T07:47:21;28.88;;;12.90;;
34317;SDS011;20582;52.196;20.952;2022-08-19T07:49:47;25.15;;;12.70;;
34317;SDS011;20582;52.196;20.952;2022-08-19T07:52:13;24.83;;;11.48;;
34317;SDS011;20582;52.196;20.952;2022-08-19T07:54:41;19.55;;;11.38;;
34317;SDS011;20582;52.196;20.952;2022-08-19T07:57:08;23.77;;;11.93;;
34317;SDS011;20582;52.196;20.952;2022-08-19T07:59:34;18.80;;;11.27;;
34317;SDS011;20582;52.196;20.952;2022-08-19T08:02:01;23.48;;;11.57;;
34317;SDS011;20582;52.196;20.952;2022-08-19T08:04:28;23.23;;;13.00;;
34317;SDS011;20582;52.196;20.952;2022-08-19T08:07:13;15.30;;;11.27;;
34317;SDS011;20582;52.196;20.952;2022-08-19T08:09:58;20.33;;;11.55;;
34317;SDS011;20582;52.196;20.952;2022-08-19T08:12:30;21.23;;;11.23;;
34317;SDS011;20582;52.196;20.952;2022-08-19T08:14:57;20.83;;;10.90;;
34317;SDS011;20582;52.196;20.952;2022-08-19T08:17:25;18.88;;;11.60;;
34317;SDS011;20582;52.196;20.952;2022-08-19T08:19:52;19.45;;;11.25;;
34317;SDS011;20582;52.196;20.952;2022-08-19T08:22:19;18.90;;;11.30;;
34317;SDS011;20582;52.196;20.952;2022-08-19T08:25:09;18.05;;;11.70;;
34317;SDS011;20582;52.196;20.952;2022-08-19T08:27:36;16.23;;;11.30;;
34317;SDS011;20582;52.196;20.952;2022-08-19T08:30:04;18.02;;;12.35;;
34317;SDS011;20582;52.196;20.952;2022-08-19T08:32:31;21.42;;;12.10;;
34317;SDS011;20582;52.196;20.952;2022-08-19T08:34:57;17.63;;;11.88;;
34317;SDS011;20582;52.196;20.952;2022-08-19T08:37:24;18.75;;;12.13;;
34317;SDS011;20582;52.196;20.952;2022-08-19T08:39:50;17.92;;;11.35;;
34317;SDS011;20582;52.196;20.952;2022-08-19T08:47:17;17.70;;;11.77;;
34317;SDS011;20582;52.196;20.952;2022-08-19T08:49:49;17.98;;;13.00;;
34317;SDS011;20582;52.196;20.952;2022-08-19T08:54:48;22.08;;;12.35;;
34317;SDS011;20582;52.196;20.952;2022-08-19T08:57:21;20.63;;;12.48;;
34317;SDS011;20582;52.196;20.952;2022-08-19T08:59:49;19.30;;;11.65;;
34317;SDS011;20582;52.196;20.952;2022-08-19T09:02:17;19.33;;;11.55;;
34317;SDS011;20582;52.196;20.952;2022-08-19T09:04:43;17.70;;;11.18;;
34317;SDS011;20582;52.196;20.952;2022-08-19T09:07:22;17.47;;;10.84;;
34317;SDS011;20582;52.196;20.952;2022-08-19T09:09:52;17.95;;;10.75;;
34317;SDS011;20582;52.196;20.952;2022-08-19T09:14:47;17.63;;;9.52;;
34317;SDS011;20582;52.196;20.952;2022-08-19T09:17:14;18.33;;;9.27;;
34317;SDS011;20582;52.196;20.952;2022-08-19T09:19:54;19.85;;;9.07;;
34317;SDS011;20582;52.196;20.952;2022-08-19T09:22:21;18.30;;;8.87;;
34317;SDS011;20582;52.196;20.952;2022-08-19T09:24:48;15.80;;;9.18;;
34317;SDS011;20582;52.196;20.952;2022-08-19T09:27:15;14.85;;;8.23;;
34317;SDS011;20582;52.196;20.952;2022-08-19T09:29:41;14.40;;;8.57;;
34317;SDS011;20582;52.196;20.952;2022-08-19T09:32:07;14.73;;;8.50;;
34317;SDS011;20582;52.196;20.952;2022-08-19T09:34:33;16.27;;;7.97;;
34317;SDS011;20582;52.196;20.952;2022-08-19T09:36:59;12.13;;;8.23;;
34317;SDS011;20582;52.196;20.952;2022-08-19T09:39:26;16.67;;;8.90;;
34317;SDS011;20582;52.196;20.952;2022-08-19T09:41:52;14.45;;;8.25;;
34317;SDS011;20582;52.196;20.952;2022-08-19T09:44:18;17.33;;;9.00;;
34317;SDS011;20582;52.196;20.952;2022-08-19T09:46:47;15.23;;;8.80;;
34317;SDS011;20582;52.196;20.952;2022-08-19T09:49:14;13.80;;;7.72;;
34317;SDS011;20582;52.196;20.952;2022-08-19T09:51:40;12.65;;;8.10;;
34317;SDS011;20582;52.196;20.952;2022-08-19T09:54:06;15.25;;;8.27;;
34317;SDS011;20582;52.196;20.952;2022-08-19T09:56:32;13.23;;;7.63;;
34317;SDS011;20582;52.196;20.952;2022-08-19T09:58:58;11.73;;;8.18;;
34317;SDS011;20582;52.196;20.952;2022-08-19T10:01:25;15.68;;;7.97;;
34317;SDS011;20582;52.196;20.952;2022-08-19T10:03:54;13.02;;;8.50;;
34317;SDS011;20582;52.196;20.952;2022-08-19T10:06:21;13.18;;;8.32;;
34317;SDS011;20582;52.196;20.952;2022-08-19T10:08:47;18.33;;;8.18;;
34317;SDS011;20582;52.196;20.952;2022-08-19T10:11:14;12.48;;;8.43;;
34317;SDS011;20582;52.196;20.952;2022-08-19T10:13:41;13.68;;;8.80;;
34317;SDS011;20582;52.196;20.952;2022-08-19T10:16:08;14.70;;;8.00;;
34317;SDS011;20582;52.196;20.952;2022-08-19T10:18:35;17.73;;;8.57;;
34317;SDS011;20582;52.196;20.952;2022-08-19T10:21:09;16.27;;;8.23;;
34317;SDS011;20582;52.196;20.952;2022-08-19T10:23:36;22.38;;;8.57;;
34317;SDS011;20582;52.196;20.952;2022-08-19T10:26:04;21.05;;;8.55;;
34317;SDS011;20582;52.196;20.952;2022-08-19T10:28:31;14.75;;;8.55;;
34317;SDS011;20582;52.196;20.952;2022-08-19T10:30:57;13.38;;;7.80;;
34317;SDS011;20582;52.196;20.952;2022-08-19T10:33:24;20.98;;;9.27;;
34317;SDS011;20582;52.196;20.952;2022-08-19T10:35:58;17.15;;;8.63;;
34317;SDS011;20582;52.196;20.952;2022-08-19T10:38:24;17.25;;;8.68;;
34317;SDS011;20582;52.196;20.952;2022-08-19T10:40:50;18.63;;;9.02;;
34317;SDS011;20582;52.196;20.952;2022-08-19T10:43:17;16.67;;;8.35;;
34317;SDS011;20582;52.196;20.952;2022-08-19T10:45:43;15.02;;;8.60;;
34317;SDS011;20582;52.196;20.952;2022-08-19T10:48:09;17.67;;;8.50;;
34317;SDS011;20582;52.196;20.952;2022-08-19T10:50:36;16.58;;;8.35;;
34317;SDS011;20582;52.196;20.952;2022-08-19T10:53:20;17.55;;;8.25;;
34317;SDS011;20582;52.196;20.952;2022-08-19T10:55:50;13.93;;;8.02;;
34317;SDS011;20582;52.196;20.952;2022-08-19T10:58:35;15.85;;;8.73;;
34317;SDS011;20582;52.196;20.952;2022-08-19T11:01:01;18.45;;;8.80;;
34317;SDS011;20582;52.196;20.952;2022-08-19T11:03:27;15.02;;;8.43;;
34317;SDS011;20582;52.196;20.952;2022-08-19T11:06:00;13.65;;;8.60;;
34317;SDS011;20582;52.196;20.952;2022-08-19T11:08:27;16.42;;;8.65;;
34317;SDS011;20582;52.196;20.952;2022-08-19T11:10:53;19.38;;;8.80;;
34317;SDS011;20582;52.196;20.952;2022-08-19T11:13:22;13.63;;;9.25;;
34317;SDS011;20582;52.196;20.952;2022-08-19T11:15:55;14.10;;;9.00;;
34317;SDS011;20582;52.196;20.952;2022-08-19T11:18:21;18.73;;;9.40;;
34317;SDS011;20582;52.196;20.952;2022-08-19T11:20:47;18.38;;;9.75;;
34317;SDS011;20582;52.196;20.952;2022-08-19T11:23:14;15.50;;;8.93;;
34317;SDS011;20582;52.196;20.952;2022-08-19T11:25:39;14.55;;;9.35;;
34317;SDS011;20582;52.196;20.952;2022-08-19T11:28:06;15.20;;;9.18;;
34317;SDS011;20582;52.196;20.952;2022-08-19T11:30:32;14.45;;;9.25;;
34317;SDS011;20582;52.196;20.952;2022-08-19T11:32:59;12.93;;;9.13;;
34317;SDS011;20582;52.196;20.952;2022-08-19T11:35:25;14.63;;;8.63;;
34317;SDS011;20582;52.196;20.952;2022-08-19T11:37:52;15.10;;;9.30;;
34317;SDS011;20582;52.196;20.952;2022-08-19T11:40:18;16.05;;;9.38;;
34317;SDS011;20582;52.196;20.952;2022-08-19T11:42:44;19.83;;;8.93;;
34317;SDS011;20582;52.196;20.952;2022-08-19T11:45:20;18.90;;;9.63;;
34317;SDS011;20582;52.196;20.952;2022-08-19T11:47:46;20.20;;;9.02;;
34317;SDS011;20582;52.196;20.952;2022-08-19T11:50:13;13.75;;;9.05;;
34317;SDS011;20582;52.196;20.952;2022-08-19T11:52:39;15.65;;;8.15;;
34317;SDS011;20582;52.196;20.952;2022-08-19T11:55:05;18.20;;;8.60;;
34317;SDS011;20582;52.196;20.952;2022-08-19T11:57:31;12.38;;;8.38;;
34317;SDS011;20582;52.196;20.952;2022-08-19T11:59:57;13.05;;;9.23;;
34317;SDS011;20582;52.196;20.952;2022-08-19T12:02:23;18.25;;;8.23;;
34317;SDS011;20582;52.196;20.952;2022-08-19T12:04:50;15.68;;;8.68;;
34317;SDS011;20582;52.196;20.952;2022-08-19T12:07:16;10.32;;;8.23;;
34317;SDS011;20582;52.196;20.952;2022-08-19T12:09:42;13.93;;;7.95;;
34317;SDS011;20582;52.196;20.952;2022-08-19T12:12:08;10.38;;;8.30;;
34317;SDS011;20582;52.196;20.952;2022-08-19T12:14:35;14.65;;;8.25;;
34317;SDS011;20582;52.196;20.952;2022-08-19T12:17:01;15.48;;;8.20;;
34317;SDS011;20582;52.196;20.952;2022-08-19T12:19:29;15.57;;;8.80;;
34317;SDS011;20582;52.196;20.952;2022-08-19T12:21:58;13.88;;;8.23;;
34317;SDS011;20582;52.196;20.952;2022-08-19T12:24:25;19.50;;;9.07;;
34317;SDS011;20582;52.196;20.952;2022-08-19T12:26:51;13.43;;;8.27;;
34317;SDS011;20582;52.196;20.952;2022-08-19T12:29:20;12.32;;;8.68;;
34317;SDS011;20582;52.196;20.952;2022-08-19T12:31:46;19.67;;;8.85;;
34317;SDS011;20582;52.196;20.952;2022-08-19T12:34:12;14.00;;;8.75;;
34317;SDS011;20582;52.196;20.952;2022-08-19T12:36:38;13.50;;;8.25;;
34317;SDS011;20582;52.196;20.952;2022-08-19T12:39:04;15.32;;;8.60;;
34317;SDS011;20582;52.196;20.952;2022-08-19T12:41:31;15.43;;;8.20;;
34317;SDS011;20582;52.196;20.952;2022-08-19T12:43:57;16.58;;;8.10;;
34317;SDS011;20582;52.196;20.952;2022-08-19T12:46:23;33.88;;;10.23;;
34317;SDS011;20582;52.196;20.952;2022-08-19T12:48:49;19.10;;;8.27;;
34317;SDS011;20582;52.196;20.952;2022-08-19T12:51:17;18.17;;;8.32;;
34317;SDS011;20582;52.196;20.952;2022-08-19T12:53:46;14.90;;;7.70;;
34317;SDS011;20582;52.196;20.952;2022-08-19T12:56:12;14.63;;;7.32;;
34317;SDS011;20582;52.196;20.952;2022-08-19T12:58:41;14.88;;;8.13;;
34317;SDS011;20582;52.196;20.952;2022-08-19T13:01:08;19.95;;;8.25;;
34317;SDS011;20582;52.196;20.952;2022-08-19T13:03:35;13.35;;;7.82;;
34317;SDS011;20582;52.196;20.952;2022-08-19T13:06:01;16.42;;;8.00;;
34317;SDS011;20582;52.196;20.952;2022-08-19T13:08:27;20.08;;;8.52;;
34317;SDS011;20582;52.196;20.952;2022-08-19T13:10:53;17.25;;;8.20;;
34317;SDS011;20582;52.196;20.952;2022-08-19T13:13:20;13.15;;;8.13;;
34317;SDS011;20582;52.196;20.952;2022-08-19T13:15:46;19.05;;;8.43;;
34317;SDS011;20582;52.196;20.952;2022-08-19T13:18:12;13.18;;;7.85;;
34317;SDS011;20582;52.196;20.952;2022-08-19T13:20:39;15.82;;;8.00;;
34317;SDS011;20582;52.196;20.952;2022-08-19T13:23:06;15.60;;;7.55;;
34317;SDS011;20582;52.196;20.952;2022-08-19T13:25:32;12.95;;;8.23;;
34317;SDS011;20582;52.196;20.952;2022-08-19T13:27:59;14.65;;;7.72;;
34317;SDS011;20582;52.196;20.952;2022-08-19T13:30:25;13.63;;;7.35;;
34317;SDS011;20582;52.196;20.952;2022-08-19T13:33:10;19.33;;;7.90;;
34317;SDS011;20582;52.196;20.952;2022-08-19T13:35:57;14.70;;;7.43;;
34317;SDS011;20582;52.196;20.952;2022-08-19T13:38:22;15.98;;;8.00;;
34317;SDS011;20582;52.196;20.952;2022-08-19T13:40:49;13.10;;;8.02;;
34317;SDS011;20582;52.196;20.952;2022-08-19T13:43:16;15.85;;;7.95;;
34317;SDS011;20582;52.196;20.952;2022-08-19T13:45:43;13.90;;;8.00;;
34317;SDS011;20582;52.196;20.952;2022-08-19T13:48:10;13.75;;;7.30;;
34317;SDS011;20582;52.196;20.952;2022-08-19T13:50:40;14.18;;;7.55;;
34317;SDS011;20582;52.196;20.952;2022-08-19T13:53:07;13.98;;;7.85;;
34317;SDS011;20582;52.196;20.952;2022-08-19T13:55:33;17.65;;;8.00;;
34317;SDS011;20582;52.196;20.952;2022-08-19T13:58:00;14.85;;;7.70;;
34317;SDS011;20582;52.196;20.952;2022-08-19T14:00:28;16.90;;;8.13;;
34317;SDS011;20582;52.196;20.952;2022-08-19T14:02:55;13.95;;;7.07;;
34317;SDS011;20582;52.196;20.952;2022-08-19T14:05:21;14.82;;;7.45;;
34317;SDS011;20582;52.196;20.952;2022-08-19T14:07:47;13.55;;;7.18;;
34317;SDS011;20582;52.196;20.952;2022-08-19T14:10:14;12.20;;;7.05;;
34317;SDS011;20582;52.196;20.952;2022-08-19T14:12:40;18.50;;;7.40;;
34317;SDS011;20582;52.196;20.952;2022-08-19T14:15:08;26.02;;;8.45;;
34317;SDS011;20582;52.196;20.952;2022-08-19T14:17:34;17.67;;;7.05;;
34317;SDS011;20582;52.196;20.952;2022-08-19T14:20:01;14.35;;;7.28;;
34317;SDS011;20582;52.196;20.952;2022-08-19T14:22:33;14.00;;;6.97;;
34317;SDS011;20582;52.196;20.952;2022-08-19T14:24:59;13.82;;;7.13;;
34317;SDS011;20582;52.196;20.952;2022-08-19T14:27:25;17.95;;;8.00;;